Time;durP1;ratioP1;P1;durP2;ratioP2;P2;SDS_P1;SDS_P2;PMS_P1;PMS_P2;Temp;Humidity;BMP_temperature;BMP_pressure;BME280_temperature;BME280_humidity;BME280_pressure;Samples;Min_cycle;Max_cycle;Signal;HPM_P1;HPM_P2
2022/01/28 00:04:48;;;;;;;168.50;77.45;;;;;;;;;;5961981;24;20025;-87
2022/01/28 00:07:14;;;;;;;313.52;127.18;;;;;;;;;;5936019;24;20025;-87
2022/01/28 00:09:40;;;;;;;257.73;112.18;;;;;;;;;;5959151;24;20009;-88
2022/01/28 00:12:10;;;;;;;170.32;79.93;;;;;;;;;;5959124;24;20232;-88
2022/01/28 00:15:05;;;;;;;148.43;69.53;;;;;;;;;;5958850;24;20005;-88
2022/01/28 00:39:45;;;;;;;163.23;86.10;;;;;;;;;;6081509;23;20011;-88
2022/01/28 00:42:11;;;;;;;197.48;88.32;;;;;;;;;;6071865;23;20007;-88
2022/01/28 00:47:40;;;;;;;155.40;78.82;;;;;;;;;;6071571;23;20017;-87
2022/01/28 00:50:07;;;;;;;150.52;76.32;;;;;;;;;;6071660;23;20006;-87
2022/01/28 00:52:33;;;;;;;139.02;71.30;;;;;;;;;;6071940;23;19999;-86
2022/01/28 00:54:59;;;;;;;122.47;62.53;;;;;;;;;;6047788;23;20003;-86
2022/01/28 00:57:25;;;;;;;109.82;56.92;;;;;;;;;;6071715;23;20014;-87
2022/01/28 01:02:54;;;;;;;;;;;;;;;;;;6156766;23;20031;-90
2022/01/28 01:05:22;;;;;;;94.10;49.95;;;;;;;;;;6221507;23;19900;-89
2022/01/28 01:07:48;;;;;;;86.57;47.53;;;;;;;;;;6194399;23;20040;-87
2022/01/28 01:10:14;;;;;;;86.20;46.72;;;;;;;;;;6221302;23;20092;-86
2022/01/28 01:12:44;;;;;;;83.45;46.75;;;;;;;;;;6194986;23;20005;-87
2022/01/28 01:15:34;;;;;;;84.10;45.70;;;;;;;;;;6221430;23;20000;-87
2022/01/28 01:18:09;;;;;;;89.07;47.53;;;;;;;;;;6221439;23;19997;-87
2022/01/28 01:23:10;;;;;;;86.30;45.60;;;;;;;;;;6220691;23;20016;-87
2022/01/28 01:25:51;;;;;;;88.45;46.28;;;;;;;;;;6221410;23;20012;-87
2022/01/28 01:28:22;;;;;;;78.90;43.70;;;;;;;;;;6220889;23;20011;-88
2022/01/28 01:31:09;;;;;;;80.30;44.22;;;;;;;;;;6220886;23;20004;-87
2022/01/28 01:33:47;;;;;;;80.35;43.25;;;;;;;;;;6221364;23;20072;-85
2022/01/28 01:36:13;;;;;;;76.13;42.08;;;;;;;;;;6221353;23;20005;-87
2022/01/28 01:38:40;;;;;;;73.28;41.05;;;;;;;;;;6194739;23;20009;-87
2022/01/28 01:41:15;;;;;;;76.35;42.33;;;;;;;;;;6194685;23;20051;-87
2022/01/28 01:54:07;;;;;;;81.07;43.10;;;;;;;;;;6221167;23;20015;-89
2022/01/28 01:56:33;;;;;;;75.78;42.05;;;;;;;;;;6221280;23;20252;-87
2022/01/28 01:59:00;;;;;;;77.50;41.28;;;;;;;;;;6221253;23;20001;-87
2022/01/28 02:01:26;;;;;;;79.03;41.58;;;;;;;;;;6194939;23;20095;-87
2022/01/28 02:03:52;;;;;;;80.30;43.10;;;;;;;;;;6194656;23;20439;-87
2022/01/28 02:06:19;;;;;;;79.10;42.10;;;;;;;;;;6221118;23;20008;-87
2022/01/28 02:08:46;;;;;;;79.18;41.75;;;;;;;;;;6194486;23;20366;-88
2022/01/28 02:11:12;;;;;;;78.10;41.97;;;;;;;;;;6222511;23;20004;-87
2022/01/28 02:13:39;;;;;;;82.60;44.08;;;;;;;;;;6223107;23;20008;-87
2022/01/28 02:16:06;;;;;;;79.80;43.25;;;;;;;;;;6171888;23;20016;-87
2022/01/28 02:18:32;;;;;;;80.80;41.35;;;;;;;;;;6222981;23;20326;-86
2022/01/28 02:21:08;;;;;;;76.20;41.92;;;;;;;;;;6222936;23;20042;-87
2022/01/28 02:23:35;;;;;;;81.18;44.05;;;;;;;;;;6222791;23;20004;-87
2022/01/28 02:26:02;;;;;;;80.97;42.33;;;;;;;;;;6222922;23;20252;-87
2022/01/28 02:28:32;;;;;;;79.95;44.67;;;;;;;;;;6222661;23;20372;-86
2022/01/28 02:30:58;;;;;;;88.35;44.47;;;;;;;;;;6196333;23;20012;-87
2022/01/28 02:33:25;;;;;;;84.80;44.47;;;;;;;;;;6195839;23;20001;-87
2022/01/28 02:35:52;;;;;;;86.05;44.25;;;;;;;;;;6222953;23;20004;-88
2022/01/28 02:38:20;;;;;;;88.63;46.15;;;;;;;;;;6196422;23;20012;-87
2022/01/28 02:40:53;;;;;;;84.20;42.78;;;;;;;;;;6222500;23;20005;-87
2022/01/28 02:45:47;;;;;;;84.68;43.75;;;;;;;;;;6227400;23;20009;-88
2022/01/28 02:48:23;;;;;;;77.15;42.42;;;;;;;;;;6222307;23;20001;-87
2022/01/28 02:53:28;;;;;;;94.07;46.17;;;;;;;;;;6232247;23;20004;-90
2022/01/28 02:56:03;;;;;;;93.20;46.55;;;;;;;;;;6196268;23;20012;-90
2022/01/28 02:58:29;;;;;;;95.68;47.58;;;;;;;;;;6222843;23;20009;-90
2022/01/28 03:00:56;;;;;;;100.32;49.20;;;;;;;;;;6222603;23;20008;-91
2022/01/28 03:03:23;;;;;;;88.65;45.63;;;;;;;;;;6221683;23;20023;-90
2022/01/28 03:05:50;;;;;;;80.25;42.72;;;;;;;;;;6196010;23;20004;-90
2022/01/28 03:08:16;;;;;;;84.30;41.95;;;;;;;;;;6222402;23;20005;-90
2022/01/28 03:11:16;;;;;;;80.32;41.80;;;;;;;;;;6195779;23;20020;-89
2022/01/28 03:16:12;;;;;;;83.13;44.30;;;;;;;;;;6222777;23;20005;-89
2022/01/28 03:18:59;;;;;;;85.80;42.53;;;;;;;;;;6222253;23;20003;-89
2022/01/28 03:23:55;;;;;;;86.95;43.45;;;;;;;;;;6232590;23;20069;-89
2022/01/28 03:26:24;;;;;;;87.68;45.20;;;;;;;;;;6222599;23;20012;-90
2022/01/28 03:28:50;;;;;;;84.60;45.33;;;;;;;;;;6195675;23;20011;-89
2022/01/28 03:31:17;;;;;;;97.28;48.42;;;;;;;;;;6222463;23;20013;-90
2022/01/28 03:33:43;;;;;;;88.93;46.63;;;;;;;;;;6222187;23;20008;-89
2022/01/28 03:36:11;;;;;;;92.13;50.72;;;;;;;;;;6222326;23;20004;-90
2022/01/28 03:38:37;;;;;;;90.60;48.38;;;;;;;;;;6221939;23;20061;-89
2022/01/28 03:41:04;;;;;;;92.93;47.70;;;;;;;;;;6195756;23;20007;-89
2022/01/28 03:43:30;;;;;;;96.60;50.10;;;;;;;;;;6222307;23;20003;-89
2022/01/28 03:45:56;;;;;;;95.32;49.55;;;;;;;;;;6195642;23;20364;-90
2022/01/28 03:48:22;;;;;;;93.65;50.05;;;;;;;;;;6221982;23;20005;-90
2022/01/28 03:50:51;;;;;;;91.95;47.05;;;;;;;;;;6221827;23;20008;-89
2022/01/28 03:53:17;;;;;;;95.43;49.92;;;;;;;;;;6221866;23;20005;-90
2022/01/28 03:55:44;;;;;;;101.53;49.83;;;;;;;;;;6222126;23;20009;-89
2022/01/28 03:58:10;;;;;;;103.68;51.03;;;;;;;;;;6221858;23;20004;-91
2022/01/28 04:00:36;;;;;;;98.20;50.13;;;;;;;;;;6221832;23;20016;-90
2022/01/28 04:03:37;;;;;;;105.18;50.47;;;;;;;;;;6221683;23;20031;-90
2022/01/28 04:11:38;;;;;;;91.20;47.95;;;;;;;;;;6081948;23;20013;-89
2022/01/28 04:15:00;;;;;;;89.82;47.88;;;;;;;;;;6071968;23;20074;-90
2022/01/28 04:19:32;;;;;;;96.28;49.83;;;;;;;;;;6110425;23;20255;-90
2022/01/28 04:21:58;;;;;;;93.15;49.00;;;;;;;;;;6101255;23;20009;-91
2022/01/28 04:24:25;;;;;;;91.07;47.42;;;;;;;;;;6076982;23;20011;-90
2022/01/28 04:26:51;;;;;;;90.15;48.78;;;;;;;;;;6101104;23;20006;-90
2022/01/28 04:29:17;;;;;;;91.13;50.00;;;;;;;;;;6100737;23;20002;-89
2022/01/28 04:34:46;;;;;;;;;;;;;;;;;;6100943;23;20005;-89
2022/01/28 04:40:01;;;;;;;90.38;49.55;;;;;;;;;;6110652;23;20014;-89
2022/01/28 05:00:40;;;;;;;80.90;44.25;;;;;;;;;;6136177;23;20259;-90
2022/01/28 05:27:41;;;;;;;71.00;39.33;;;;;;;;;;6221162;23;20077;-89
2022/01/28 05:33:11;;;;;;;111.93;61.70;;;;;;;;;;6221202;23;20008;-90
2022/01/28 05:35:37;;;;;;;88.68;52.15;;;;;;;;;;6194986;23;20005;-89
2022/01/28 05:38:03;;;;;;;77.20;42.15;;;;;;;;;;6221282;23;20000;-89
2022/01/28 05:40:29;;;;;;;74.72;39.80;;;;;;;;;;6221024;23;20005;-89
2022/01/28 05:42:55;;;;;;;68.40;38.33;;;;;;;;;;6221187;23;20076;-90
2022/01/28 05:45:21;;;;;;;65.30;38.58;;;;;;;;;;6221769;23;20008;-88
2022/01/28 05:47:47;;;;;;;63.13;33.95;;;;;;;;;;6196463;23;20028;-88
2022/01/28 05:50:13;;;;;;;64.50;36.60;;;;;;;;;;6223217;23;20004;-87
2022/01/28 05:52:39;;;;;;;69.88;37.30;;;;;;;;;;6196051;23;20004;-89
2022/01/28 05:55:05;;;;;;;77.10;39.63;;;;;;;;;;6223249;23;19997;-88
2022/01/28 05:57:31;;;;;;;65.60;36.53;;;;;;;;;;6197083;23;20028;-88
2022/01/28 05:59:58;;;;;;;60.42;34.42;;;;;;;;;;6222786;23;20012;-89
2022/01/28 06:02:24;;;;;;;66.78;37.13;;;;;;;;;;6196274;23;20031;-90
2022/01/28 06:04:50;;;;;;;58.42;33.92;;;;;;;;;;6223229;23;20005;-89
2022/01/28 06:07:19;;;;;;;66.55;36.67;;;;;;;;;;6196360;23;20008;-89
2022/01/28 06:09:46;;;;;;;63.78;38.00;;;;;;;;;;6196421;23;20040;-88
2022/01/28 06:12:12;;;;;;;65.15;36.13;;;;;;;;;;6222250;23;20024;-87
2022/01/28 06:14:38;;;;;;;60.90;35.30;;;;;;;;;;6222776;23;20001;-87
2022/01/28 06:17:04;;;;;;;71.25;38.80;;;;;;;;;;6222945;23;19996;-87
2022/01/28 06:19:30;;;;;;;65.68;36.88;;;;;;;;;;6222167;23;20383;-87
2022/01/28 06:21:56;;;;;;;57.83;33.63;;;;;;;;;;6222927;23;20062;-87
2022/01/28 06:24:22;;;;;;;54.05;32.00;;;;;;;;;;6196210;23;20009;-87
2022/01/28 06:26:48;;;;;;;64.43;38.30;;;;;;;;;;6222717;23;20004;-87
2022/01/28 06:29:14;;;;;;;61.10;35.13;;;;;;;;;;6222469;23;20000;-87
2022/01/28 06:31:42;;;;;;;76.30;43.42;;;;;;;;;;6222311;23;20015;-87
2022/01/28 06:34:08;;;;;;;93.65;52.55;;;;;;;;;;6196414;23;20047;-87
2022/01/28 06:36:35;;;;;;;69.10;39.33;;;;;;;;;;6222452;23;20003;-87
2022/01/28 06:39:01;;;;;;;71.57;39.20;;;;;;;;;;6222410;23;20004;-85
2022/01/28 06:41:27;;;;;;;69.65;39.22;;;;;;;;;;6222387;23;20008;-84
2022/01/28 06:43:53;;;;;;;62.58;36.60;;;;;;;;;;6222253;23;20004;-85
2022/01/28 06:46:19;;;;;;;68.80;36.08;;;;;;;;;;6222411;23;20001;-85
2022/01/28 06:48:45;;;;;;;65.47;36.17;;;;;;;;;;6222635;23;20012;-84
2022/01/28 06:51:11;;;;;;;77.28;39.65;;;;;;;;;;6222585;23;20008;-85
2022/01/28 06:53:37;;;;;;;84.68;39.35;;;;;;;;;;6195971;23;20268;-85
2022/01/28 06:56:04;;;;;;;74.80;38.03;;;;;;;;;;6195850;23;20000;-85
2022/01/28 06:58:30;;;;;;;68.80;34.90;;;;;;;;;;6221967;23;20479;-85
2022/01/28 07:00:56;;;;;;;67.60;35.50;;;;;;;;;;6222569;23;20068;-85
2022/01/28 07:03:22;;;;;;;66.80;36.58;;;;;;;;;;6221934;23;20182;-85
2022/01/28 07:05:48;;;;;;;72.45;39.83;;;;;;;;;;6221969;23;20001;-85
2022/01/28 07:08:14;;;;;;;66.95;37.67;;;;;;;;;;6195908;23;20422;-85
2022/01/28 07:10:40;;;;;;;65.38;35.63;;;;;;;;;;6222356;23;20008;-85
2022/01/28 07:13:06;;;;;;;69.72;37.90;;;;;;;;;;6222371;23;20066;-85
2022/01/28 07:15:32;;;;;;;73.30;36.10;;;;;;;;;;6195642;23;20005;-85
2022/01/28 07:18:03;;;;;;;74.30;36.75;;;;;;;;;;6195941;23;20004;-85
2022/01/28 07:20:30;;;;;;;64.07;34.60;;;;;;;;;;6222485;23;20009;-86
2022/01/28 07:22:56;;;;;;;77.00;45.00;;;;;;;;;;6195918;23;20359;-85
2022/01/28 07:25:22;;;;;;;87.75;53.58;;;;;;;;;;6221857;23;20028;-85
2022/01/28 07:27:48;;;;;;;108.82;72.93;;;;;;;;;;6222141;23;20237;-85
2022/01/28 07:30:24;;;;;;;105.90;70.13;;;;;;;;;;6195703;23;20181;-84
2022/01/28 07:32:51;;;;;;;98.05;62.00;;;;;;;;;;6222112;23;20001;-84
2022/01/28 07:35:17;;;;;;;83.93;51.88;;;;;;;;;;6221622;23;20364;-85
2022/01/28 07:37:43;;;;;;;66.82;41.33;;;;;;;;;;6221339;23;20004;-85
2022/01/28 07:40:10;;;;;;;60.60;35.85;;;;;;;;;;6194954;23;20008;-85
2022/01/28 07:42:39;;;;;;;62.17;35.67;;;;;;;;;;6222005;23;20291;-84
2022/01/28 07:45:06;;;;;;;60.05;35.65;;;;;;;;;;6195485;23;20008;-85
2022/01/28 07:47:32;;;;;;;64.90;36.92;;;;;;;;;;6221877;23;20012;-85
2022/01/28 07:49:58;;;;;;;66.78;36.25;;;;;;;;;;6195578;23;20012;-85
2022/01/28 07:52:25;;;;;;;67.57;39.20;;;;;;;;;;6222072;23;20007;-85
2022/01/28 07:54:51;;;;;;;70.65;42.63;;;;;;;;;;6195316;23;19997;-85
2022/01/28 07:57:17;;;;;;;67.97;38.65;;;;;;;;;;6221312;23;20301;-85
2022/01/28 07:59:43;;;;;;;65.93;40.38;;;;;;;;;;6221831;23;20263;-85
2022/01/28 08:02:09;;;;;;;67.90;39.17;;;;;;;;;;6221644;23;20008;-85
2022/01/28 08:04:37;;;;;;;66.78;38.80;;;;;;;;;;6222016;23;20032;-85
2022/01/28 08:07:03;;;;;;;70.60;39.00;;;;;;;;;;6221872;23;20051;-85
2022/01/28 08:09:29;;;;;;;70.10;39.25;;;;;;;;;;6221356;23;20005;-85
2022/01/28 08:11:55;;;;;;;78.45;43.17;;;;;;;;;;6195497;23;20005;-85
2022/01/28 08:14:21;;;;;;;75.30;40.67;;;;;;;;;;6221341;23;20085;-85
2022/01/28 08:16:47;;;;;;;78.30;41.55;;;;;;;;;;6221064;23;19996;-85
2022/01/28 08:19:13;;;;;;;78.53;41.72;;;;;;;;;;6221716;23;20075;-84
2022/01/28 08:21:39;;;;;;;81.07;42.72;;;;;;;;;;6221643;23;20004;-85
2022/01/28 08:24:05;;;;;;;70.18;40.03;;;;;;;;;;6221453;23;20005;-85
2022/01/28 08:26:32;;;;;;;75.35;41.63;;;;;;;;;;6221213;23;20043;-84
2022/01/28 08:28:58;;;;;;;68.30;39.78;;;;;;;;;;6221116;23;20004;-84
2022/01/28 08:31:24;;;;;;;81.05;41.00;;;;;;;;;;6195345;23;20004;-85
2022/01/28 08:33:50;;;;;;;100.30;46.17;;;;;;;;;;6195080;23;20003;-84
2022/01/28 08:36:16;;;;;;;101.60;43.80;;;;;;;;;;6194961;23;20356;-85
2022/01/28 08:38:46;;;;;;;91.00;44.25;;;;;;;;;;6220954;23;20043;-84
2022/01/28 08:41:13;;;;;;;128.27;53.08;;;;;;;;;;6194660;23;20011;-84
2022/01/28 08:43:39;;;;;;;100.85;46.40;;;;;;;;;;6221195;23;20047;-85
2022/01/28 08:46:06;;;;;;;92.65;43.75;;;;;;;;;;6220692;23;20000;-85
2022/01/28 08:48:32;;;;;;;95.57;44.17;;;;;;;;;;6221515;23;20399;-85
2022/01/28 08:50:58;;;;;;;79.95;39.38;;;;;;;;;;6194873;23;20013;-85
2022/01/28 08:53:24;;;;;;;85.68;40.35;;;;;;;;;;6220728;23;20091;-85
2022/01/28 08:55:50;;;;;;;76.78;39.60;;;;;;;;;;6221501;23;20016;-85
2022/01/28 08:58:16;;;;;;;71.70;39.88;;;;;;;;;;6221006;23;20092;-83
2022/01/28 09:00:45;;;;;;;74.75;40.40;;;;;;;;;;6221233;23;20017;-85
2022/01/28 09:03:13;;;;;;;65.95;37.58;;;;;;;;;;6194546;23;20017;-84
2022/01/28 09:05:39;;;;;;;70.57;38.15;;;;;;;;;;6193809;23;20272;-85
2022/01/28 09:08:08;;;;;;;63.35;36.63;;;;;;;;;;6221310;23;19997;-85
2022/01/28 09:10:37;;;;;;;80.25;43.05;;;;;;;;;;6220661;23;20028;-84
2022/01/28 09:15:36;;;;;;;76.40;41.38;;;;;;;;;;6224078;23;20362;-84
2022/01/28 09:18:02;;;;;;;63.50;35.97;;;;;;;;;;6220845;23;20299;-85
2022/01/28 09:20:29;;;;;;;61.90;35.08;;;;;;;;;;6220898;23;20019;-84
2022/01/28 09:22:55;;;;;;;57.47;33.08;;;;;;;;;;6194597;23;20012;-85
2022/01/28 09:25:21;;;;;;;61.92;32.95;;;;;;;;;;6193950;23;20012;-85
2022/01/28 09:27:47;;;;;;;65.82;32.90;;;;;;;;;;6221130;23;19996;-84
2022/01/28 09:30:13;;;;;;;61.58;31.58;;;;;;;;;;6221115;23;20023;-85
2022/01/28 09:32:39;;;;;;;49.90;26.23;;;;;;;;;;6193866;23;20005;-84
2022/01/28 09:35:06;;;;;;;44.13;22.95;;;;;;;;;;6220787;23;20004;-85
2022/01/28 09:37:33;;;;;;;47.92;23.45;;;;;;;;;;6194049;23;20111;-84
2022/01/28 09:40:00;;;;;;;53.10;26.23;;;;;;;;;;6220619;23;20067;-84
2022/01/28 09:42:29;;;;;;;53.35;27.45;;;;;;;;;;6220636;23;20016;-84
2022/01/28 09:44:56;;;;;;;53.53;27.55;;;;;;;;;;6220749;23;20434;-84
2022/01/28 09:47:22;;;;;;;50.38;26.15;;;;;;;;;;6194352;23;20307;-84
2022/01/28 09:49:48;;;;;;;50.45;26.70;;;;;;;;;;6220565;23;20418;-84
2022/01/28 09:52:14;;;;;;;57.08;28.45;;;;;;;;;;6220961;23;19992;-84
2022/01/28 09:54:46;;;;;;;54.00;27.10;;;;;;;;;;6193929;23;20005;-84
2022/01/28 09:57:13;;;;;;;44.35;24.58;;;;;;;;;;6194449;23;20016;-84
2022/01/28 09:59:39;;;;;;;47.60;24.48;;;;;;;;;;6194475;23;20360;-84
2022/01/28 10:02:05;;;;;;;43.08;23.58;;;;;;;;;;6221029;23;20005;-83
2022/01/28 10:04:31;;;;;;;24.45;14.02;;;;;;;;;;6221003;23;20016;-84
2022/01/28 10:06:58;;;;;;;22.60;13.43;;;;;;;;;;6220555;23;20036;-84
2022/01/28 10:09:24;;;;;;;20.05;13.32;;;;;;;;;;6220735;23;20080;-84
2022/01/28 10:11:54;;;;;;;17.27;10.00;;;;;;;;;;6220703;23;19996;-84
2022/01/28 10:14:24;;;;;;;16.05;9.30;;;;;;;;;;6194258;23;20031;-84
2022/01/28 10:16:57;;;;;;;20.63;11.43;;;;;;;;;;6220754;23;20359;-84
2022/01/28 10:19:25;;;;;;;12.20;7.40;;;;;;;;;;6220973;23;20023;-84
2022/01/28 10:21:51;;;;;;;21.05;9.57;;;;;;;;;;6194465;23;20039;-84
2022/01/28 10:24:21;;;;;;;21.42;11.15;;;;;;;;;;6220526;23;20009;-85
2022/01/28 10:27:05;;;;;;;24.77;11.82;;;;;;;;;;6220863;23;20009;-85
2022/01/28 10:29:36;;;;;;;29.10;11.68;;;;;;;;;;6220609;23;20008;-84
2022/01/28 10:32:04;;;;;;;30.42;10.98;;;;;;;;;;6222266;23;20008;-84
2022/01/28 10:34:41;;;;;;;29.33;9.23;;;;;;;;;;6222359;23;20285;-85
2022/01/28 10:37:10;;;;;;;25.48;9.05;;;;;;;;;;6195488;23;20005;-85
2022/01/28 10:39:42;;;;;;;33.92;10.95;;;;;;;;;;6222739;23;20005;-84
2022/01/28 10:42:09;;;;;;;38.55;14.65;;;;;;;;;;6222668;23;19996;-85
2022/01/28 10:44:50;;;;;;;58.40;28.50;;;;;;;;;;6195929;23;20035;-84
2022/01/28 10:47:28;;;;;;;69.93;32.88;;;;;;;;;;6222511;23;20004;-84
2022/01/28 10:49:54;;;;;;;64.18;26.27;;;;;;;;;;6222425;23;20004;-84
2022/01/28 10:52:30;;;;;;;42.00;21.33;;;;;;;;;;6222391;23;20075;-84
2022/01/28 10:55:00;;;;;;;45.85;24.20;;;;;;;;;;6195755;23;20009;-84
2022/01/28 10:57:26;;;;;;;46.67;25.67;;;;;;;;;;6221954;23;20024;-84
2022/01/28 10:59:53;;;;;;;48.78;26.45;;;;;;;;;;6195392;23;20077;-85
2022/01/28 11:02:19;;;;;;;49.30;25.02;;;;;;;;;;6221807;23;20012;-84
2022/01/28 11:04:46;;;;;;;26.88;16.02;;;;;;;;;;6221638;23;20019;-84
2022/01/28 11:07:12;;;;;;;30.98;14.45;;;;;;;;;;6222367;23;20005;-84
2022/01/28 11:09:40;;;;;;;19.40;10.15;;;;;;;;;;6221778;23;20004;-84
2022/01/28 11:12:07;;;;;;;22.88;11.55;;;;;;;;;;6222330;23;20068;-84
2022/01/28 11:14:33;;;;;;;30.40;16.20;;;;;;;;;;6222135;23;20046;-84
2022/01/28 11:17:00;;;;;;;35.83;20.73;;;;;;;;;;6195565;23;20188;-83
2022/01/28 11:19:28;;;;;;;39.40;22.60;;;;;;;;;;6221979;23;20001;-84
2022/01/28 11:21:54;;;;;;;41.97;23.60;;;;;;;;;;6221934;23;20001;-84
2022/01/28 11:24:38;;;;;;;41.75;23.23;;;;;;;;;;6222159;23;20029;-84
2022/01/28 11:27:33;;;;;;;42.75;23.50;;;;;;;;;;6222098;23;20057;-84
2022/01/28 11:30:22;;;;;;;54.08;26.52;;;;;;;;;;6100895;23;20398;-84
2022/01/28 11:33:12;;;;;;;56.92;25.95;;;;;;;;;;6101070;23;20333;-84
2022/01/28 11:35:38;;;;;;;40.55;22.63;;;;;;;;;;6101087;23;20073;-84
2022/01/28 11:38:22;;;;;;;46.22;23.65;;;;;;;;;;6100860;23;20402;-84
2022/01/28 11:40:54;;;;;;;50.00;23.35;;;;;;;;;;6076777;23;20035;-84
2022/01/28 11:43:24;;;;;;;132.05;58.80;;;;;;;;;;6100695;23;20006;-84
2022/01/28 11:46:18;;;;;;;33.92;18.85;;;;;;;;;;6100878;23;20062;-84
2022/01/28 11:48:54;;;;;;;383.55;178.52;;;;;;;;;;6098461;23;20011;-84
2022/01/28 11:51:20;;;;;;;80.40;36.17;;;;;;;;;;6102147;23;20006;-85
2022/01/28 11:53:56;;;;;;;72.80;35.47;;;;;;;;;;6101812;23;20003;-85
2022/01/28 11:56:24;;;;;;;36.30;19.58;;;;;;;;;;6101199;23;20007;-84
2022/01/28 11:58:54;;;;;;;40.83;19.38;;;;;;;;;;6101163;23;20006;-84
2022/01/28 12:01:46;;;;;;;17.30;10.43;;;;;;;;;;6100849;23;20010;-84
2022/01/28 12:04:27;;;;;;;19.52;11.02;;;;;;;;;;6101114;23;20019;-85
2022/01/28 12:07:15;;;;;;;22.70;12.15;;;;;;;;;;6187690;23;20024;-85
2022/01/28 12:09:43;;;;;;;20.73;11.05;;;;;;;;;;6222108;23;20008;-84
2022/01/28 12:12:11;;;;;;;19.13;10.57;;;;;;;;;;6221444;23;19997;-84
2022/01/28 12:14:50;;;;;;;23.45;13.35;;;;;;;;;;6194616;23;20012;-84
2022/01/28 12:17:36;;;;;;;79.93;32.50;;;;;;;;;;6195061;23;20361;-83
2022/01/28 12:20:24;;;;;;;16.05;9.60;;;;;;;;;;6194966;23;20047;-84
2022/01/28 12:23:08;;;;;;;16.70;10.23;;;;;;;;;;6195001;23;20009;-84
2022/01/28 12:25:37;;;;;;;16.75;9.85;;;;;;;;;;6220085;23;20009;-83
2022/01/28 12:28:22;;;;;;;8.13;5.32;;;;;;;;;;6221181;23;20355;-84
2022/01/28 12:31:00;;;;;;;11.23;6.28;;;;;;;;;;6221238;23;20391;-84
2022/01/28 12:33:27;;;;;;;10.60;6.18;;;;;;;;;;6221538;23;20260;-83
2022/01/28 12:35:56;;;;;;;26.60;13.98;;;;;;;;;;6221374;23;20092;-84
2022/01/28 12:38:25;;;;;;;27.65;14.68;;;;;;;;;;6221466;23;19997;-84
2022/01/28 12:40:53;;;;;;;18.90;11.02;;;;;;;;;;6221208;23;20008;-84
2022/01/28 12:43:20;;;;;;;14.70;9.05;;;;;;;;;;6221494;23;19996;-84
2022/01/28 12:45:56;;;;;;;9.68;5.82;;;;;;;;;;6221008;23;20008;-84
2022/01/28 12:48:22;;;;;;;10.05;6.00;;;;;;;;;;6221300;23;20071;-84
2022/01/28 12:50:51;;;;;;;9.73;4.43;;;;;;;;;;6220835;23;20363;-84
2022/01/28 12:53:35;;;;;;;11.25;5.65;;;;;;;;;;6194339;23;20001;-84
2022/01/28 12:56:01;;;;;;;10.63;5.07;;;;;;;;;;6193709;23;20004;-84
2022/01/28 12:58:37;;;;;;;12.15;5.43;;;;;;;;;;6194812;23;20063;-84
2022/01/28 13:01:05;;;;;;;11.85;5.53;;;;;;;;;;6221356;23;20390;-84
2022/01/28 13:03:36;;;;;;;18.55;7.75;;;;;;;;;;6220962;23;20279;-83
2022/01/28 13:06:24;;;;;;;9.00;4.07;;;;;;;;;;6221284;23;20008;-84
2022/01/28 13:08:51;;;;;;;9.20;5.00;;;;;;;;;;6194592;23;20005;-83
2022/01/28 13:11:17;;;;;;;20.45;9.25;;;;;;;;;;6220753;23;20001;-84
2022/01/28 13:13:51;;;;;;;13.20;4.80;;;;;;;;;;6221192;23;20008;-84
2022/01/28 13:16:28;;;;;;;13.57;4.53;;;;;;;;;;6220812;23;19997;-83
2022/01/28 13:18:55;;;;;;;11.98;6.13;;;;;;;;;;6220769;23;20003;-84
2022/01/28 13:21:21;;;;;;;6.05;2.88;;;;;;;;;;6220928;23;20004;-83
2022/01/28 13:23:47;;;;;;;5.07;3.10;;;;;;;;;;6220376;23;20004;-84
2022/01/28 13:26:14;;;;;;;8.90;5.18;;;;;;;;;;6220426;23;20005;-84
2022/01/28 13:28:40;;;;;;;15.88;8.35;;;;;;;;;;6220744;23;20000;-83
2022/01/28 13:31:06;;;;;;;13.57;7.00;;;;;;;;;;6220930;23;20012;-84
2022/01/28 13:33:32;;;;;;;17.25;9.73;;;;;;;;;;6194232;23;20009;-84
2022/01/28 13:36:01;;;;;;;26.60;13.68;;;;;;;;;;6194668;23;20264;-84
2022/01/28 13:38:34;;;;;;;17.42;8.48;;;;;;;;;;6221027;23;20011;-84
2022/01/28 13:41:00;;;;;;;11.68;8.18;;;;;;;;;;6220910;23;20001;-84
2022/01/28 13:43:28;;;;;;;15.70;7.78;;;;;;;;;;6220771;23;20005;-84
2022/01/28 13:45:56;;;;;;;4.97;3.78;;;;;;;;;;6220253;23;20031;-83
2022/01/28 13:48:34;;;;;;;9.23;5.20;;;;;;;;;;6220403;23;20004;-84
2022/01/28 13:51:06;;;;;;;15.73;7.38;;;;;;;;;;6220917;23;20294;-83
2022/01/28 13:54:28;;;;;;;13.93;6.05;;;;;;;;;;6193994;23;20001;-84
2022/01/28 13:56:41;;;;;;;7.25;3.95;;;;;;;;;;6201658;23;20398;-84
2022/01/28 13:59:11;;;;;;;15.70;4.40;;;;;;;;;;6220930;23;20004;-83
2022/01/28 14:01:37;;;;;;;10.73;5.88;;;;;;;;;;6221109;23;20079;-84
2022/01/28 14:04:04;;;;;;;12.52;5.07;;;;;;;;;;6220681;23;20417;-83
2022/01/28 14:06:31;;;;;;;19.80;7.43;;;;;;;;;;6194780;23;20012;-84
2022/01/28 14:09:05;;;;;;;46.20;16.15;;;;;;;;;;6221926;23;20328;-83
2022/01/28 14:11:39;;;;;;;14.32;6.18;;;;;;;;;;6195246;23;20009;-83
2022/01/28 14:14:24;;;;;;;28.52;12.15;;;;;;;;;;6195528;23;20011;-83
2022/01/28 14:16:51;;;;;;;25.35;8.00;;;;;;;;;;6222406;23;20000;-84
2022/01/28 14:19:17;;;;;;;34.28;11.35;;;;;;;;;;6222769;23;20023;-84
2022/01/28 14:21:44;;;;;;;13.15;4.80;;;;;;;;;;6222578;23;20020;-84
2022/01/28 14:24:12;;;;;;;13.00;5.90;;;;;;;;;;6196321;23;20005;-83
2022/01/28 14:26:42;;;;;;;12.43;4.97;;;;;;;;;;6222822;23;20023;-83
2022/01/28 14:29:21;;;;;;;6.00;3.30;;;;;;;;;;6222274;23;19997;-84
2022/01/28 14:31:47;;;;;;;10.05;4.70;;;;;;;;;;6222380;23;20035;-84
2022/01/28 14:34:13;;;;;;;10.30;3.88;;;;;;;;;;6195647;23;20275;-84
2022/01/28 14:36:40;;;;;;;24.55;8.02;;;;;;;;;;6222230;23;19997;-84
2022/01/28 14:39:10;;;;;;;49.70;17.15;;;;;;;;;;6222248;23;20000;-84
2022/01/28 14:41:36;;;;;;;39.85;11.95;;;;;;;;;;6222454;23;20004;-83
2022/01/28 14:44:03;;;;;;;34.58;12.00;;;;;;;;;;6196123;23;20004;-84
2022/01/28 14:46:29;;;;;;;24.45;10.05;;;;;;;;;;6222639;23;20012;-84
2022/01/28 14:48:57;;;;;;;30.35;13.45;;;;;;;;;;6195666;23;20012;-84
2022/01/28 14:51:23;;;;;;;20.98;8.45;;;;;;;;;;6195886;23;20055;-85
2022/01/28 14:53:49;;;;;;;21.80;7.60;;;;;;;;;;6222539;23;20080;-84
2022/01/28 14:56:15;;;;;;;18.23;8.00;;;;;;;;;;6222269;23;19997;-84
2022/01/28 14:58:41;;;;;;;21.48;8.70;;;;;;;;;;6222450;23;20019;-84
2022/01/28 15:01:07;;;;;;;49.10;17.00;;;;;;;;;;6222292;23;20024;-84
2022/01/28 15:03:33;;;;;;;49.20;15.45;;;;;;;;;;6195546;23;20329;-84
2022/01/28 15:06:00;;;;;;;15.57;5.95;;;;;;;;;;6222565;23;20005;-84
2022/01/28 15:08:27;;;;;;;28.52;9.02;;;;;;;;;;6195794;23;20055;-84
2022/01/28 15:10:55;;;;;;;9.25;5.40;;;;;;;;;;6221739;23;20079;-84
2022/01/28 15:13:21;;;;;;;11.05;4.03;;;;;;;;;;6221789;23;19996;-84
2022/01/28 15:15:47;;;;;;;13.55;6.10;;;;;;;;;;6221990;23;20013;-83
2022/01/28 15:18:13;;;;;;;19.73;6.68;;;;;;;;;;6220978;23;20076;-85
2022/01/28 15:20:40;;;;;;;16.65;6.03;;;;;;;;;;6222161;23;20076;-84
2022/01/28 15:23:06;;;;;;;18.67;5.60;;;;;;;;;;6221987;23;20015;-83
2022/01/28 15:25:32;;;;;;;10.90;3.45;;;;;;;;;;6222361;23;20076;-84
2022/01/28 15:27:59;;;;;;;8.25;3.25;;;;;;;;;;6221614;23;20004;-85
2022/01/28 15:38:04;;;;;;;14.77;5.05;;;;;;;;;;6232100;23;20438;-84
2022/01/28 15:40:30;;;;;;;11.60;5.25;;;;;;;;;;6222160;23;20035;-84
2022/01/28 15:43:00;;;;;;;13.50;5.68;;;;;;;;;;6221803;23;20001;-84
2022/01/28 15:45:29;;;;;;;12.07;5.28;;;;;;;;;;6221979;23;20001;-85
2022/01/28 15:47:55;;;;;;;17.73;6.03;;;;;;;;;;6222081;23;20008;-84
2022/01/28 15:50:21;;;;;;;15.43;6.72;;;;;;;;;;6221623;23;20286;-84
2022/01/28 15:52:47;;;;;;;12.82;5.05;;;;;;;;;;6221527;23;20000;-84
2022/01/28 15:55:15;;;;;;;31.95;10.50;;;;;;;;;;6221504;23;20034;-85
2022/01/28 15:57:42;;;;;;;13.20;5.82;;;;;;;;;;6221441;23;20024;-84
2022/01/28 16:00:11;;;;;;;14.35;6.45;;;;;;;;;;6221971;23;20021;-84
2022/01/28 16:02:37;;;;;;;16.45;6.85;;;;;;;;;;6191251;23;20323;-86
2022/01/28 16:05:03;;;;;;;15.43;6.53;;;;;;;;;;6218999;23;20020;-85
2022/01/28 16:07:30;;;;;;;87.43;32.58;;;;;;;;;;6195491;23;20268;-86
2022/01/28 16:10:05;;;;;;;41.25;14.65;;;;;;;;;;6221876;23;20028;-86
2022/01/28 16:12:47;;;;;;;18.27;7.78;;;;;;;;;;6194406;23;20005;-86
2022/01/28 16:18:23;;;;;;;13.13;5.82;;;;;;;;;;6232006;23;20004;-86
2022/01/28 16:20:49;;;;;;;16.17;7.63;;;;;;;;;;6221471;23;20005;-87
2022/01/28 16:23:15;;;;;;;13.82;5.88;;;;;;;;;;6221312;23;20360;-86
2022/01/28 16:25:41;;;;;;;12.65;5.00;;;;;;;;;;6221895;23;20001;-86
2022/01/28 16:28:07;;;;;;;13.07;4.00;;;;;;;;;;6221879;23;20009;-86
2022/01/28 16:30:33;;;;;;;12.25;4.32;;;;;;;;;;6220869;23;20099;-85
2022/01/28 16:32:59;;;;;;;8.93;3.78;;;;;;;;;;6221563;23;20321;-86
2022/01/28 16:35:25;;;;;;;12.15;5.65;;;;;;;;;;6221787;23;20290;-85
2022/01/28 16:37:52;;;;;;;12.45;4.93;;;;;;;;;;6220686;23;20024;-86
2022/01/28 16:40:18;;;;;;;10.23;4.22;;;;;;;;;;6221185;23;20015;-85